Time;durP1;ratioP1;P1;durP2;ratioP2;P2;SDS_P1;SDS_P2;PMS_P1;PMS_P2;Temp;Humidity;BMP_temperature;BMP_pressure;BME280_temperature;BME280_humidity;BME280_pressure;Samples;Min_cycle;Max_cycle;Signal;HPM_P1;HPM_P2
2024/01/10 00:00:14;;;;;;;0.65;0.63;;;-0.50;96.90;;;;;;5037836;28;20124;-71
2024/01/10 00:02:39;;;;;;;0.80;0.80;;;-0.50;96.90;;;;;;5036628;28;20041;-72
2024/01/10 00:05:05;;;;;;;0.32;0.32;;;-0.40;96.40;;;;;;5037205;28;21193;-72
2024/01/10 00:07:31;;;;;;;1.08;0.30;;;-0.40;96.40;;;;;;5038853;28;20066;-72
2024/01/10 00:09:59;;;;;;;1.75;0.73;;;-0.40;96.40;;;;;;5037034;28;20052;-72
2024/01/10 00:12:25;;;;;;;3.08;0.57;;;-0.30;96.30;;;;;;5046516;28;20028;-72
2024/01/10 00:14:51;;;;;;;1.08;0.85;;;-0.30;96.00;;;;;;5047690;28;20036;-72
2024/01/10 00:17:16;;;;;;;1.25;1.10;;;-0.30;96.20;;;;;;5035938;28;20057;-70
2024/01/10 00:19:42;;;;;;;0.77;0.65;;;-0.40;96.30;;;;;;5037875;28;20084;-71
2024/01/10 00:22:08;;;;;;;1.77;1.67;;;-0.30;96.10;;;;;;5032866;28;20122;-71
2024/01/10 00:24:33;;;;;;;3.85;1.30;;;-0.30;96.30;;;;;;5040809;28;20158;-72
2024/01/10 00:26:59;;;;;;;0.98;0.80;;;-0.30;96.10;;;;;;5040583;28;20039;-71
2024/01/10 00:29:24;;;;;;;0.75;0.75;;;-0.30;96.20;;;;;;5037901;28;21238;-70
2024/01/10 00:31:52;;;;;;;1.00;0.50;;;-0.40;96.60;;;;;;5038294;28;20063;-71
2024/01/10 00:34:18;;;;;;;1.02;0.82;;;-0.50;96.70;;;;;;5034904;28;20052;-72
2024/01/10 00:36:44;;;;;;;3.60;0.98;;;-0.50;96.90;;;;;;5019397;28;20053;-71
2024/01/10 00:39:10;;;;;;;2.50;1.98;;;-0.50;97.20;;;;;;5037342;28;20036;-72
2024/01/10 00:41:36;;;;;;;0.63;0.60;;;-0.50;97.40;;;;;;5038729;28;20390;-72
2024/01/10 00:44:01;;;;;;;0.80;0.55;;;-0.50;97.80;;;;;;5034725;28;20697;-70
2024/01/10 00:46:27;;;;;;;0.82;0.50;;;-0.50;98.30;;;;;;5038204;28;20079;-72
2024/01/10 00:48:52;;;;;;;1.38;1.35;;;-0.40;99.00;;;;;;5035085;28;20089;-70
2024/01/10 00:51:18;;;;;;;2.55;0.65;;;-0.50;99.30;;;;;;5036859;28;20159;-71
2024/01/10 00:53:44;;;;;;;0.52;0.52;;;-0.50;99.70;;;;;;5041204;28;20465;-72
2024/01/10 00:56:09;;;;;;;1.85;1.42;;;-0.60;99.90;;;;;;5033800;28;20036;-72
2024/01/10 00:58:35;;;;;;;6.95;0.93;;;-0.60;99.90;;;;;;5041228;28;20406;-72
2024/01/10 01:01:01;;;;;;;1.42;0.93;;;-0.70;99.90;;;;;;5036793;28;20543;-72
2024/01/10 01:03:26;;;;;;;0.82;0.82;;;-0.70;99.90;;;;;;5036109;28;20048;-70
2024/01/10 01:05:52;;;;;;;0.93;0.93;;;-0.80;99.90;;;;;;5039012;28;20033;-71
2024/01/10 01:08:18;;;;;;;0.47;0.47;;;-0.80;99.90;;;;;;5038096;28;20074;-72
2024/01/10 01:10:43;;;;;;;1.85;1.75;;;-0.80;99.90;;;;;;5036137;28;20067;-71
2024/01/10 01:13:09;;;;;;;0.85;0.47;;;-0.80;99.90;;;;;;5037187;28;20039;-71
2024/01/10 01:15:35;;;;;;;1.08;0.60;;;-0.80;99.90;;;;;;5029620;28;20040;-70
2024/01/10 01:18:00;;;;;;;1.48;1.38;;;-0.80;99.90;;;;;;5040596;28;20067;-71
2024/01/10 01:20:26;;;;;;;0.55;0.55;;;-0.80;99.90;;;;;;5039000;28;20060;-72
2024/01/10 01:22:52;;;;;;;3.50;0.75;;;-0.80;99.90;;;;;;5033635;28;20539;-71
2024/01/10 01:25:18;;;;;;;5.15;0.60;;;-0.70;99.90;;;;;;5039351;28;20041;-70
2024/01/10 01:27:44;;;;;;;1.73;1.02;;;-0.60;99.90;;;;;;5033393;28;20077;-71
2024/01/10 01:30:11;;;;;;;0.90;0.82;;;-0.60;99.90;;;;;;5030249;28;20029;-72
2024/01/10 01:32:37;;;;;;;0.13;0.13;;;-0.60;99.90;;;;;;5037388;28;20096;-73
2024/01/10 01:35:03;;;;;;;1.80;1.67;;;-0.60;99.90;;;;;;5036498;28;20683;-72
2024/01/10 01:37:29;;;;;;;0.30;0.30;;;-0.50;99.90;;;;;;5037773;28;20047;-70
2024/01/10 01:39:54;;;;;;;1.55;1.00;;;-0.50;99.90;;;;;;5039031;28;20033;-71
2024/01/10 01:42:20;;;;;;;4.18;1.05;;;-0.40;99.90;;;;;;5032842;28;20556;-71
2024/01/10 01:44:46;;;;;;;0.40;0.40;;;-0.40;99.90;;;;;;5037032;28;20072;-71
2024/01/10 01:47:11;;;;;;;0.55;0.55;;;-0.40;99.90;;;;;;5031762;28;20033;-73
2024/01/10 01:49:37;;;;;;;0.73;0.73;;;-0.40;99.90;;;;;;5030757;28;20032;-72
2024/01/10 01:52:04;;;;;;;5.75;1.38;;;-0.40;99.90;;;;;;5034793;28;20185;-71
2024/01/10 01:54:32;;;;;;;16.23;1.20;;;-0.40;99.90;;;;;;5035648;28;20032;-71
2024/01/10 01:56:58;;;;;;;0.43;0.43;;;-0.50;99.90;;;;;;5034187;28;20037;-71
2024/01/10 01:59:24;;;;;;;2.15;0.98;;;-0.50;99.90;;;;;;5038352;28;20060;-71
2024/01/10 02:01:54;;;;;;;0.60;0.60;;;-0.50;99.90;;;;;;5032762;28;20064;-71
2024/01/10 02:04:20;;;;;;;1.27;0.80;;;-0.50;99.90;;;;;;5037670;28;20037;-70
2024/01/10 02:06:45;;;;;;;2.88;0.73;;;-0.50;99.90;;;;;;5039787;28;20489;-70
2024/01/10 02:09:11;;;;;;;0.73;0.45;;;-0.50;99.90;;;;;;5035945;28;20075;-72
2024/01/10 02:11:37;;;;;;;0.38;0.20;;;-0.60;99.90;;;;;;5043805;28;20027;-71
2024/01/10 02:14:03;;;;;;;9.05;1.88;;;-0.60;99.90;;;;;;5041994;28;20029;-70
2024/01/10 02:16:29;;;;;;;0.60;0.60;;;-0.60;99.90;;;;;;5033399;28;20037;-72
2024/01/10 02:18:55;;;;;;;0.43;0.43;;;-0.60;99.90;;;;;;5041866;28;20025;-70
2024/01/10 02:21:21;;;;;;;16.85;2.03;;;-0.70;99.90;;;;;;5039560;28;20043;-71
2024/01/10 02:23:47;;;;;;;2.30;1.38;;;-0.70;99.90;;;;;;5034853;28;20052;-72
2024/01/10 02:26:14;;;;;;;3.50;2.47;;;-0.80;99.90;;;;;;5040282;28;20047;-72
2024/01/10 02:28:39;;;;;;;2.17;1.10;;;-0.70;99.90;;;;;;5034849;28;21147;-72
2024/01/10 02:31:06;;;;;;;0.60;0.60;;;-0.70;99.90;;;;;;5039801;28;20033;-72
2024/01/10 02:33:32;;;;;;;3.30;1.20;;;-0.80;99.90;;;;;;5039850;28;20033;-71
2024/01/10 02:35:58;;;;;;;1.50;0.85;;;-0.80;99.90;;;;;;5037434;28;20036;-71
2024/01/10 02:38:24;;;;;;;1.20;0.52;;;-0.90;99.90;;;;;;5042944;28;20052;-72
2024/01/10 02:40:49;;;;;;;1.95;1.85;;;-0.90;99.90;;;;;;5040085;28;20098;-71
2024/01/10 02:43:15;;;;;;;3.92;0.82;;;-0.80;99.90;;;;;;5035562;28;20033;-71
2024/01/10 02:45:41;;;;;;;1.35;1.10;;;-0.70;99.90;;;;;;5040408;28;20041;-72
2024/01/10 02:48:07;;;;;;;2.35;0.70;;;-0.80;99.90;;;;;;5037260;28;20102;-72
2024/01/10 02:50:33;;;;;;;1.13;0.77;;;-0.80;99.90;;;;;;5039745;28;20397;-72
2024/01/10 02:52:58;;;;;;;0.88;0.80;;;-0.80;99.90;;;;;;5043449;28;20036;-72
2024/01/10 02:55:24;;;;;;;1.02;0.95;;;-0.80;99.90;;;;;;5034940;28;20035;-73
2024/01/10 02:57:49;;;;;;;1.80;1.65;;;-0.80;99.90;;;;;;5054215;28;20044;-71
2024/01/10 03:00:15;;;;;;;1.27;1.27;;;-0.90;99.90;;;;;;5049937;28;20933;-72
2024/01/10 03:02:41;;;;;;;0.65;0.55;;;-0.90;99.90;;;;;;5034131;28;20037;-71
2024/01/10 03:05:07;;;;;;;1.52;0.85;;;-0.90;99.90;;;;;;5040269;28;20166;-71
2024/01/10 03:07:32;;;;;;;0.50;0.50;;;-0.90;99.90;;;;;;5040034;28;20044;-71
2024/01/10 03:10:29;;;;;;;2.25;2.08;;;-0.90;99.90;;;;;;5035132;28;20021;-71
2024/01/10 03:12:55;;;;;;;1.48;0.85;;;-0.90;99.90;;;;;;5042538;28;20032;-71
2024/01/10 03:15:20;;;;;;;2.08;1.67;;;-0.90;99.90;;;;;;5034455;28;20029;-71
2024/01/10 03:17:46;;;;;;;1.42;0.93;;;-0.90;99.90;;;;;;5034986;28;20033;-70
2024/01/10 03:20:12;;;;;;;1.42;1.33;;;-1.00;99.90;;;;;;5042128;28;20114;-71
2024/01/10 03:22:37;;;;;;;2.42;1.77;;;-1.10;99.90;;;;;;5035031;28;20084;-72
2024/01/10 03:25:03;;;;;;;1.38;1.10;;;-1.10;99.90;;;;;;5038328;28;20041;-72
2024/01/10 03:27:29;;;;;;;0.93;0.93;;;-1.10;99.90;;;;;;5042346;28;20398;-72
2024/01/10 03:29:54;;;;;;;0.70;0.70;;;-1.10;99.90;;;;;;5034615;28;20036;-72
2024/01/10 03:32:20;;;;;;;2.35;0.57;;;-1.20;99.90;;;;;;5038127;28;20029;-71
2024/01/10 03:34:46;;;;;;;1.77;1.67;;;-1.20;99.90;;;;;;5041406;28;20064;-74
2024/01/10 03:37:11;;;;;;;0.65;0.65;;;-1.30;99.90;;;;;;5037404;28;20257;-72
2024/01/10 03:39:37;;;;;;;1.48;1.38;;;-1.20;99.90;;;;;;5040135;28;20509;-71
2024/01/10 03:42:03;;;;;;;1.05;1.00;;;-1.30;99.90;;;;;;5039647;28;20040;-71
2024/01/10 03:44:28;;;;;;;4.47;1.98;;;-1.40;99.90;;;;;;5037694;28;20041;-71
2024/01/10 03:46:54;;;;;;;1.05;0.95;;;-1.40;99.90;;;;;;5039124;28;20367;-71
2024/01/10 03:49:20;;;;;;;3.70;1.90;;;-1.50;99.90;;;;;;5037139;28;20766;-72
2024/01/10 03:51:45;;;;;;;3.40;1.63;;;-1.60;99.90;;;;;;5041457;28;20075;-72
2024/01/10 03:54:11;;;;;;;0.93;0.60;;;-1.70;99.90;;;;;;5042530;28;20093;-71
2024/01/10 03:56:37;;;;;;;0.65;0.65;;;-1.70;99.90;;;;;;5036564;28;20492;-74
2024/01/10 03:59:02;;;;;;;2.70;1.35;;;-1.80;99.90;;;;;;5040258;28;20167;-71
2024/01/10 04:01:28;;;;;;;0.45;0.45;;;-1.80;99.90;;;;;;5034274;28;20036;-71
2024/01/10 04:03:53;;;;;;;1.70;1.60;;;-1.90;99.90;;;;;;5031935;28;20063;-71
2024/01/10 04:06:19;;;;;;;0.60;0.60;;;-2.00;99.90;;;;;;5041376;28;20409;-71
2024/01/10 04:08:45;;;;;;;3.70;2.03;;;-2.00;99.90;;;;;;5038293;28;20074;-70
2024/01/10 04:11:10;;;;;;;2.20;1.92;;;-2.10;99.90;;;;;;5039400;28;20116;-71
2024/01/10 04:13:36;;;;;;;1.23;1.15;;;-2.10;99.90;;;;;;5038278;28;20029;-71
2024/01/10 04:16:02;;;;;;;4.22;1.58;;;-2.20;99.90;;;;;;5032023;28;20071;-72
2024/01/10 04:18:27;;;;;;;1.73;0.88;;;-2.20;99.90;;;;;;5036584;28;20033;-72
2024/01/10 04:20:53;;;;;;;0.43;0.43;;;-2.30;99.90;;;;;;5035736;28;20064;-71
2024/01/10 04:23:18;;;;;;;1.75;1.02;;;-2.30;99.90;;;;;;5030935;28;20107;-71
2024/01/10 04:25:44;;;;;;;2.95;1.23;;;-2.30;99.90;;;;;;5038673;28;20032;-71
2024/01/10 04:28:10;;;;;;;3.00;2.05;;;-2.40;99.90;;;;;;5037693;28;20032;-72
2024/01/10 04:30:35;;;;;;;0.77;0.77;;;-2.40;99.90;;;;;;5031488;28;20083;-72
2024/01/10 04:33:01;;;;;;;0.22;0.22;;;-2.40;99.90;;;;;;5036946;28;20056;-72
2024/01/10 04:35:26;;;;;;;0.30;0.30;;;-2.40;99.90;;;;;;5039125;28;20033;-72
2024/01/10 04:37:52;;;;;;;6.85;1.35;;;-2.50;99.90;;;;;;5037403;28;20025;-72
2024/01/10 04:40:18;;;;;;;2.95;1.08;;;-2.50;99.90;;;;;;5040346;28;20562;-72
2024/01/10 04:42:44;;;;;;;0.95;0.73;;;-2.50;99.90;;;;;;5037954;28;20120;-71
2024/01/10 04:45:10;;;;;;;0.47;0.47;;;-2.50;99.90;;;;;;5037898;28;20037;-71
2024/01/10 04:47:35;;;;;;;2.95;2.25;;;-2.60;99.90;;;;;;5037384;28;20396;-71
2024/01/10 04:50:01;;;;;;;0.75;0.70;;;-2.60;99.90;;;;;;5033952;28;20044;-72
2024/01/10 04:52:27;;;;;;;3.60;1.13;;;-2.60;99.90;;;;;;5038714;28;20061;-71
2024/01/10 04:54:52;;;;;;;2.95;1.13;;;-2.60;99.90;;;;;;5041063;28;20254;-71
2024/01/10 04:57:18;;;;;;;2.42;0.52;;;-2.70;99.90;;;;;;5033726;28;20033;-70
2024/01/10 04:59:43;;;;;;;2.05;0.77;;;-2.70;99.90;;;;;;5039396;28;20033;-70
2024/01/10 05:02:10;;;;;;;1.15;0.45;;;-2.80;99.90;;;;;;5026723;28;20527;-73
2024/01/10 05:04:35;;;;;;;3.75;1.13;;;-2.70;99.90;;;;;;5032493;28;20029;-71
2024/01/10 05:07:01;;;;;;;1.05;0.98;;;-2.60;99.90;;;;;;5040736;28;20037;-70
2024/01/10 05:09:26;;;;;;;0.43;0.35;;;-2.60;99.90;;;;;;5035667;28;20104;-72
2024/01/10 05:11:53;;;;;;;0.57;0.57;;;-2.70;99.90;;;;;;5026730;28;20025;-71
2024/01/10 05:14:19;;;;;;;0.75;0.70;;;-2.70;99.90;;;;;;5040538;28;20036;-71
2024/01/10 05:16:47;;;;;;;0.32;0.32;;;-2.70;99.90;;;;;;5031030;28;20521;-71
2024/01/10 05:19:13;;;;;;;2.08;0.75;;;-2.70;99.90;;;;;;5038893;28;20039;-73
2024/01/10 05:21:39;;;;;;;2.92;0.47;;;-2.70;99.90;;;;;;5039156;28;20025;-71
2024/01/10 05:24:05;;;;;;;1.08;1.08;;;-2.70;99.90;;;;;;5031859;28;20509;-70
2024/01/10 05:26:31;;;;;;;0.25;0.25;;;-2.70;99.90;;;;;;5037692;28;20796;-71
2024/01/10 05:28:57;;;;;;;0.93;0.93;;;-2.70;99.90;;;;;;5037281;28;20139;-71
2024/01/10 05:31:22;;;;;;;1.40;1.30;;;-2.80;99.90;;;;;;5035439;28;20033;-72
2024/01/10 05:33:48;;;;;;;0.50;0.50;;;-2.70;99.90;;;;;;5039101;28;20071;-71
2024/01/10 05:36:14;;;;;;;0.30;0.30;;;-2.80;99.90;;;;;;5037560;28;20033;-70
2024/01/10 05:38:41;;;;;;;1.38;1.27;;;-2.80;99.90;;;;;;5038421;28;20580;-70
2024/01/10 05:41:06;;;;;;;0.80;0.80;;;-2.90;99.90;;;;;;5040128;28;20021;-71
2024/01/10 05:43:32;;;;;;;0.68;0.68;;;-3.00;99.90;;;;;;5033574;28;20056;-71
2024/01/10 05:45:59;;;;;;;0.63;0.63;;;-3.10;99.90;;;;;;5040641;28;20047;-71
2024/01/10 05:48:25;;;;;;;1.63;0.95;;;-3.10;99.90;;;;;;5044439;28;20024;-71
2024/01/10 05:50:50;;;;;;;0.65;0.65;;;-3.10;99.90;;;;;;5038869;28;20036;-71
2024/01/10 05:53:17;;;;;;;0.50;0.50;;;-3.20;99.90;;;;;;5044433;28;20532;-71
2024/01/10 05:55:43;;;;;;;0.40;0.40;;;-3.20;99.90;;;;;;5041203;28;20146;-71
2024/01/10 05:58:10;;;;;;;0.28;0.28;;;-3.20;99.90;;;;;;5037696;28;20048;-71
2024/01/10 06:00:35;;;;;;;0.73;0.73;;;-3.10;99.90;;;;;;5043613;28;20025;-71
2024/01/10 06:03:01;;;;;;;0.68;0.45;;;-3.00;99.90;;;;;;5045650;28;20029;-70
2024/01/10 06:05:26;;;;;;;0.20;0.20;;;-2.90;99.90;;;;;;5043601;28;20428;-70
2024/01/10 06:07:52;;;;;;;1.10;0.93;;;-3.00;99.90;;;;;;5037113;28;20144;-72
2024/01/10 06:10:18;;;;;;;1.02;0.98;;;-3.00;99.90;;;;;;5036978;28;21179;-72
2024/01/10 06:12:43;;;;;;;0.35;0.35;;;-2.90;99.90;;;;;;5044053;28;20401;-71
2024/01/10 06:15:09;;;;;;;3.65;1.08;;;-3.00;99.90;;;;;;5035551;28;21652;-70
2024/01/10 06:17:35;;;;;;;0.40;0.40;;;-3.00;99.90;;;;;;5026132;28;20526;-73
2024/01/10 06:20:03;;;;;;;0.32;0.32;;;-3.00;99.90;;;;;;5040417;28;20037;-70
2024/01/10 06:22:29;;;;;;;1.02;1.02;;;-3.00;99.90;;;;;;5038127;28;20138;-72
2024/01/10 06:24:54;;;;;;;0.35;0.35;;;-3.00;99.90;;;;;;5036665;28;20043;-71
2024/01/10 06:27:20;;;;;;;0.45;0.45;;;-3.00;99.90;;;;;;5041501;28;21222;-71
2024/01/10 06:29:45;;;;;;;0.03;0.03;;;-3.10;99.90;;;;;;5036846;28;20109;-72
2024/01/10 06:32:11;;;;;;;0.30;0.30;;;-2.90;99.90;;;;;;5036728;28;20067;-72
2024/01/10 06:34:37;;;;;;;0.75;0.75;;;-2.90;99.90;;;;;;5037607;28;20504;-71
2024/01/10 06:37:03;;;;;;;0.93;0.93;;;-2.90;99.90;;;;;;5037981;28;20037;-72
2024/01/10 06:39:28;;;;;;;2.35;2.15;;;-2.90;99.90;;;;;;5043681;28;20140;-70
2024/01/10 06:41:55;;;;;;;0.70;0.70;;;-2.90;99.90;;;;;;5040705;28;20036;-71
2024/01/10 06:44:20;;;;;;;0.90;0.88;;;-2.90;99.90;;;;;;5039107;28;20037;-71
2024/01/10 06:46:46;;;;;;;1.35;1.33;;;-2.90;99.90;;;;;;5043536;28;20040;-71
2024/01/10 06:49:12;;;;;;;1.88;0.45;;;-2.90;99.90;;;;;;5040130;28;20033;-71
2024/01/10 06:51:38;;;;;;;1.20;1.10;;;-2.80;99.90;;;;;;5036574;28;20025;-70
2024/01/10 06:54:04;;;;;;;1.92;1.27;;;-2.80;99.90;;;;;;5043615;28;20029;-71
2024/01/10 06:56:30;;;;;;;0.28;0.28;;;-2.80;99.90;;;;;;5036281;28;20163;-71
2024/01/10 06:58:57;;;;;;;1.25;1.05;;;-2.70;99.90;;;;;;5035825;28;20060;-71
2024/01/10 07:01:22;;;;;;;0.95;0.90;;;-2.70;99.90;;;;;;5039451;28;20052;-72
2024/01/10 07:03:49;;;;;;;1.20;1.20;;;-2.70;99.90;;;;;;5026957;28;20101;-71
2024/01/10 07:06:15;;;;;;;2.30;1.33;;;-2.70;99.90;;;;;;5042337;28;20037;-71
2024/01/10 07:08:42;;;;;;;0.63;0.60;;;-2.60;99.90;;;;;;5040837;28;20036;-70
2024/01/10 07:11:08;;;;;;;1.85;1.40;;;-2.60;99.90;;;;;;5022872;28;20029;-71
2024/01/10 07:13:34;;;;;;;0.70;0.70;;;-2.80;99.90;;;;;;5039644;28;21588;-70
2024/01/10 07:16:01;;;;;;;0.82;0.75;;;-2.80;99.90;;;;;;5038582;28;20045;-72
2024/01/10 07:18:28;;;;;;;3.92;1.65;;;-2.90;99.90;;;;;;5035470;28;20021;-70
2024/01/10 07:20:54;;;;;;;0.50;0.40;;;-2.90;99.90;;;;;;5040699;28;20561;-71
2024/01/10 07:23:19;;;;;;;0.73;0.63;;;-3.00;99.90;;;;;;5037933;28;20455;-70
2024/01/10 07:25:45;;;;;;;3.28;0.45;;;-3.10;99.90;;;;;;5021809;28;20091;-69
2024/01/10 07:28:11;;;;;;;0.10;0.10;;;-3.10;99.90;;;;;;5039022;28;20468;-71
2024/01/10 07:30:36;;;;;;;0.52;0.52;;;-3.10;99.90;;;;;;5031546;28;20036;-72
2024/01/10 07:33:02;;;;;;;0.73;0.57;;;-3.00;99.90;;;;;;5038934;28;20064;-71
2024/01/10 07:35:29;;;;;;;1.73;1.40;;;-3.10;99.90;;;;;;5034078;28;20482;-71
2024/01/10 07:37:55;;;;;;;1.83;1.67;;;-3.10;99.90;;;;;;5034819;28;20040;-72
2024/01/10 07:40:20;;;;;;;0.85;0.85;;;-3.20;99.90;;;;;;5039095;28;20048;-71
2024/01/10 07:42:46;;;;;;;0.52;0.32;;;-3.20;99.90;;;;;;5038134;28;20207;-71
2024/01/10 07:45:11;;;;;;;1.75;0.25;;;-3.20;99.90;;;;;;5035792;28;20041;-70
2024/01/10 07:47:38;;;;;;;0.63;0.63;;;-3.30;99.90;;;;;;5036121;28;20032;-70
2024/01/10 07:50:09;;;;;;;0.75;0.57;;;-3.30;99.90;;;;;;5033205;28;20353;-70
2024/01/10 07:52:35;;;;;;;0.75;0.73;;;-3.30;99.90;;;;;;5035471;28;20123;-71
2024/01/10 07:55:01;;;;;;;1.95;0.82;;;-3.30;99.90;;;;;;5037929;28;20405;-71
2024/01/10 07:57:27;;;;;;;1.27;0.65;;;-3.30;99.90;;;;;;5032489;28;20024;-70
2024/01/10 07:59:53;;;;;;;0.20;0.20;;;-3.30;99.90;;;;;;5036812;28;20032;-70
2024/01/10 08:02:19;;;;;;;0.55;0.40;;;-3.20;99.90;;;;;;5034412;28;20043;-69
2024/01/10 08:04:45;;;;;;;0.85;0.85;;;-3.30;99.90;;;;;;5030584;28;20098;-71
2024/01/10 08:07:11;;;;;;;0.68;0.50;;;-3.30;99.90;;;;;;5030689;28;20029;-71
2024/01/10 08:09:37;;;;;;;3.38;1.17;;;-3.30;99.90;;;;;;5031899;28;20125;-71
2024/01/10 08:12:03;;;;;;;2.00;1.33;;;-3.30;99.90;;;;;;5028300;28;20037;-70
2024/01/10 08:14:29;;;;;;;5.60;0.95;;;-3.30;99.90;;;;;;5034459;28;20623;-71
2024/01/10 08:16:57;;;;;;;0.38;0.38;;;-3.30;99.90;;;;;;5035430;28;20043;-72
2024/01/10 08:19:25;;;;;;;1.95;1.75;;;-3.30;99.90;;;;;;5032692;28;20059;-70
2024/01/10 08:21:52;;;;;;;4.28;1.35;;;-3.20;99.90;;;;;;5036240;28;20525;-71
2024/01/10 08:24:18;;;;;;;8.20;1.42;;;-3.20;99.90;;;;;;5032015;28;20423;-71
2024/01/10 08:26:44;;;;;;;0.40;0.35;;;-3.20;99.90;;;;;;5034311;28;21719;-72
2024/01/10 08:29:10;;;;;;;1.58;1.00;;;-3.20;99.90;;;;;;5033977;28;20028;-72
2024/01/10 08:31:35;;;;;;;0.10;0.10;;;-3.10;99.90;;;;;;5019853;28;20029;-72
2024/01/10 08:34:01;;;;;;;0.40;0.40;;;-3.10;99.90;;;;;;5027632;28;20036;-73
2024/01/10 08:36:27;;;;;;;1.40;0.35;;;-3.10;99.90;;;;;;5028819;28;20029;-74
2024/01/10 08:38:52;;;;;;;12.50;1.77;;;-3.10;99.90;;;;;;5021976;28;20037;-71
2024/01/10 08:41:19;;;;;;;0.30;0.30;;;-3.00;99.90;;;;;;5025067;28;21494;-72
2024/01/10 08:43:46;;;;;;;0.93;0.90;;;-3.00;99.90;;;;;;5021901;28;20074;-72
2024/01/10 08:46:12;;;;;;;0.20;0.20;;;-3.00;99.90;;;;;;5027071;28;20041;-71
2024/01/10 08:48:37;;;;;;;1.25;1.15;;;-2.90;99.90;;;;;;5027665;28;20064;-72
2024/01/10 08:51:03;;;;;;;3.97;0.85;;;-2.90;99.90;;;;;;5022942;28;20029;-73
2024/01/10 08:53:29;;;;;;;0.63;0.63;;;-2.80;99.90;;;;;;5024145;28;20118;-72
2024/01/10 08:55:55;;;;;;;3.00;2.30;;;-2.70;99.90;;;;;;5022405;28;20025;-69
2024/01/10 08:58:21;;;;;;;0.43;0.30;;;-2.70;99.90;;;;;;5019889;28;20036;-70
2024/01/10 09:00:46;;;;;;;0.57;0.52;;;-2.60;99.90;;;;;;5025499;28;20064;-70
2024/01/10 09:03:12;;;;;;;0.73;0.73;;;-2.50;99.90;;;;;;5024683;28;20032;-70
2024/01/10 09:05:38;;;;;;;2.33;2.03;;;-2.40;99.90;;;;;;5021138;28;20064;-71
2024/01/10 09:08:04;;;;;;;1.02;0.95;;;-2.40;99.90;;;;;;5026660;28;20025;-72
2024/01/10 09:10:30;;;;;;;0.73;0.43;;;-2.30;99.90;;;;;;5025865;28;20082;-72
2024/01/10 09:12:59;;;;;;;0.28;0.28;;;-2.20;99.90;;;;;;5026823;28;20029;-72
2024/01/10 09:15:25;;;;;;;0.57;0.52;;;-2.10;99.90;;;;;;5032259;28;20061;-71
2024/01/10 09:17:52;;;;;;;0.43;0.43;;;-2.00;99.90;;;;;;5028744;28;20188;-70
2024/01/10 09:20:17;;;;;;;1.52;1.13;;;-1.90;99.90;;;;;;5030195;28;20037;-73
2024/01/10 09:22:43;;;;;;;0.85;0.65;;;-1.80;99.90;;;;;;5031631;28;20146;-72
2024/01/10 09:25:12;;;;;;;0.65;0.50;;;-1.70;99.90;;;;;;5028397;28;20044;-74
2024/01/10 09:27:40;;;;;;;1.90;1.23;;;-1.60;99.90;;;;;;5034061;28;20033;-73
2024/01/10 09:30:08;;;;;;;0.40;0.40;;;-1.40;99.90;;;;;;5033212;28;20032;-71
2024/01/10 09:32:35;;;;;;;2.47;1.30;;;-1.40;99.90;;;;;;5030349;28;20044;-71
2024/01/10 09:35:01;;;;;;;2.33;1.55;;;-1.20;99.90;;;;;;5044353;28;20033;-73
2024/01/10 09:37:26;;;;;;;0.30;0.30;;;-1.20;99.90;;;;;;5051525;28;20103;-72
2024/01/10 09:39:52;;;;;;;0.50;0.50;;;-1.10;99.90;;;;;;5044390;28;20064;-74
2024/01/10 09:42:20;;;;;;;1.77;1.52;;;-1.00;99.90;;;;;;5033998;28;20057;-73
2024/01/10 09:44:47;;;;;;;1.67;1.58;;;-0.90;99.90;;;;;;5045007;28;20037;-74
2024/01/10 09:47:14;;;;;;;2.08;0.45;;;-0.80;99.90;;;;;;5033925;28;20103;-73
2024/01/10 09:49:40;;;;;;;3.50;1.42;;;-0.70;99.90;;;;;;5031324;28;20039;-71
2024/01/10 09:52:10;;;;;;;2.25;1.98;;;-0.60;99.90;;;;;;5011060;28;20468;-74
2024/01/10 09:54:38;;;;;;;2.33;2.13;;;-0.50;99.90;;;;;;5029095;28;20037;-72
2024/01/10 09:57:05;;;;;;;2.28;1.85;;;-0.40;99.90;;;;;;5027497;28;20036;-72
2024/01/10 09:59:31;;;;;;;1.88;1.42;;;-0.30;99.90;;;;;;5028396;28;20493;-73
2024/01/10 10:01:58;;;;;;;7.07;1.17;;;-0.20;99.90;;;;;;5024019;28;20800;-73
2024/01/10 10:04:27;;;;;;;1.40;1.17;;;-0.10;99.90;;;;;;5021401;28;20044;-71
2024/01/10 10:07:01;;;;;;;2.47;1.48;;;0.00;99.90;;;;;;5022318;28;20849;-72
2024/01/10 10:09:28;;;;;;;3.60;1.17;;;0.00;99.90;;;;;;5027368;28;20041;-71
2024/01/10 10:11:54;;;;;;;1.35;1.25;;;0.10;99.90;;;;;;5024792;28;20503;-73
2024/01/10 10:14:20;;;;;;;0.77;0.77;;;0.20;99.90;;;;;;5025742;28;20064;-73
2024/01/10 10:16:46;;;;;;;0.75;0.73;;;0.30;99.90;;;;;;5009443;28;20417;-74
2024/01/10 10:19:12;;;;;;;0.95;0.95;;;0.40;99.90;;;;;;5022959;28;20110;-72
2024/01/10 10:21:38;;;;;;;2.00;1.05;;;0.50;99.90;;;;;;5028666;28;20044;-75
2024/01/10 10:24:05;;;;;;;0.57;0.45;;;0.70;99.90;;;;;;5018926;28;20037;-72
2024/01/10 10:26:33;;;;;;;1.15;1.10;;;0.80;99.90;;;;;;5023052;28;20342;-71
2024/01/10 10:28:59;;;;;;;2.97;2.77;;;0.80;99.90;;;;;;5021099;28;20040;-71
2024/01/10 10:31:25;;;;;;;3.72;1.40;;;0.90;99.90;;;;;;5026063;28;20491;-73
2024/01/10 10:33:52;;;;;;;1.52;0.85;;;0.90;99.90;;;;;;5031774;28;20032;-72
2024/01/10 10:36:18;;;;;;;1.90;1.75;;;1.00;99.90;;;;;;5031639;28;20044;-72
2024/01/10 10:38:45;;;;;;;1.80;1.25;;;1.00;99.90;;;;;;5022129;28;20079;-73
2024/01/10 10:41:11;;;;;;;2.45;0.90;;;1.10;99.90;;;;;;5030950;28;20056;-73
2024/01/10 10:43:38;;;;;;;1.35;0.75;;;1.10;99.90;;;;;;5028902;28;20087;-72
2024/01/10 10:46:06;;;;;;;3.38;1.45;;;1.20;99.90;;;;;;5033501;28;20734;-72
2024/01/10 10:48:35;;;;;;;0.38;0.38;;;1.30;99.90;;;;;;5038530;28;20036;-73
2024/01/10 10:51:06;;;;;;;1.30;0.90;;;1.30;99.90;;;;;;5035423;28;20116;-74
2024/01/10 10:53:36;;;;;;;3.67;1.50;;;1.40;99.90;;;;;;5038248;28;20139;-72
2024/01/10 10:56:05;;;;;;;0.43;0.43;;;1.50;99.90;;;;;;5037695;28;21551;-74
2024/01/10 10:58:35;;;;;;;2.37;1.33;;;1.60;99.90;;;;;;5026149;28;20071;-74
2024/01/10 11:01:05;;;;;;;1.88;0.82;;;1.60;99.90;;;;;;5038319;28;20269;-72
2024/01/10 11:03:33;;;;;;;1.52;1.27;;;1.70;99.90;;;;;;5040255;28;20056;-74
2024/01/10 11:06:01;;;;;;;2.20;1.48;;;1.80;99.90;;;;;;5034644;28;20442;-73
2024/01/10 11:08:29;;;;;;;1.33;0.68;;;1.90;99.90;;;;;;5035100;28;20040;-71
2024/01/10 11:10:56;;;;;;;11.55;2.92;;;2.00;99.90;;;;;;5029774;28;21582;-74
2024/01/10 11:13:43;;;;;;;2.42;1.85;;;2.10;99.90;;;;;;5035132;28;20052;-74
2024/01/10 11:16:20;;;;;;;8.95;3.13;;;2.20;99.90;;;;;;5038388;28;20037;-75
2024/01/10 11:18:47;;;;;;;2.22;1.35;;;2.20;99.90;;;;;;5032729;28;20076;-76
2024/01/10 11:21:27;;;;;;;4.95;1.17;;;2.20;99.90;;;;;;5038992;28;20602;-70
2024/01/10 11:23:57;;;;;;;7.82;3.13;;;2.30;99.90;;;;;;5033997;28;20148;-72
2024/01/10 11:26:23;;;;;;;3.53;1.27;;;2.30;99.90;;;;;;5022771;28;20037;-72
2024/01/10 11:28:50;;;;;;;2.55;1.40;;;2.30;99.90;;;;;;5029565;28;20040;-73
2024/01/10 11:31:28;;;;;;;12.10;1.83;;;2.40;99.90;;;;;;5026119;28;20017;-73
2024/01/10 11:33:56;;;;;;;3.30;1.48;;;2.50;99.90;;;;;;5030140;28;20029;-73
2024/01/10 11:36:25;;;;;;;12.55;1.80;;;2.50;99.90;;;;;;5032981;28;20152;-72
2024/01/10 11:38:53;;;;;;;24.65;1.90;;;2.60;99.90;;;;;;5029034;28;20041;-72
2024/01/10 11:41:25;;;;;;;4.60;1.20;;;2.60;99.90;;;;;;5031430;28;20120;-71
2024/01/10 11:44:11;;;;;;;1.95;1.50;;;2.60;99.90;;;;;;5030688;28;20464;-71
2024/01/10 11:46:39;;;;;;;3.65;1.75;;;2.70;99.90;;;;;;5034058;28;20036;-71
2024/01/10 11:49:08;;;;;;;1.63;1.00;;;2.70;99.90;;;;;;5035687;28;20021;-71
2024/01/10 11:51:36;;;;;;;3.20;1.90;;;2.80;99.90;;;;;;5031084;28;20036;-74
2024/01/10 11:54:02;;;;;;;1.67;1.33;;;2.90;99.90;;;;;;5033105;28;20058;-73
2024/01/10 11:56:39;;;;;;;2.65;1.83;;;2.90;99.90;;;;;;5038061;28;20493;-74
2024/01/10 11:59:11;;;;;;;2.90;1.83;;;2.90;99.90;;;;;;5029921;28;20033;-71
2024/01/10 12:01:38;;;;;;;3.58;1.45;;;2.90;99.90;;;;;;5036463;28;21333;-73
2024/01/10 12:04:04;;;;;;;4.97;2.53;;;2.90;99.90;;;;;;5036578;28;20038;-75
2024/01/10 12:06:31;;;;;;;2.47;2.05;;;3.00;99.90;;;;;;5034388;28;20025;-75
2024/01/10 12:08:57;;;;;;;3.53;2.63;;;3.00;99.90;;;;;;5037304;28;20132;-72
2024/01/10 12:11:23;;;;;;;1.70;1.10;;;3.10;99.90;;;;;;5035075;28;20158;-74
2024/01/10 12:13:49;;;;;;;2.47;1.25;;;3.20;99.90;;;;;;5034171;28;20055;-72
2024/01/10 12:16:16;;;;;;;4.13;1.98;;;3.30;99.90;;;;;;5035547;28;20128;-76
2024/01/10 12:18:42;;;;;;;7.60;1.45;;;3.40;99.90;;;;;;5024344;28;20163;-71
2024/01/10 12:21:09;;;;;;;1.75;1.58;;;3.50;99.90;;;;;;5028662;28;20064;-73
2024/01/10 12:23:36;;;;;;;1.55;0.95;;;3.50;99.90;;;;;;5029439;28;20049;-74
2024/01/10 12:26:07;;;;;;;2.63;1.98;;;3.60;99.90;;;;;;5032174;28;20086;-74
2024/01/10 12:28:33;;;;;;;0.80;0.77;;;3.60;99.90;;;;;;5034537;28;20025;-74
2024/01/10 12:30:59;;;;;;;5.43;2.00;;;3.70;99.90;;;;;;5034465;28;20083;-75
2024/01/10 12:33:25;;;;;;;14.07;1.70;;;3.80;99.90;;;;;;5032484;28;20060;-74
2024/01/10 12:36:09;;;;;;;3.63;1.02;;;3.90;99.90;;;;;;5038354;28;20029;-75
2024/01/10 12:38:38;;;;;;;7.32;1.15;;;4.00;99.90;;;;;;5035205;28;20136;-74
2024/01/10 12:41:04;;;;;;;;;;;4.00;99.90;;;;;;5039787;28;20037;-75
2024/01/10 12:43:31;;;;;;;5.10;1.05;;;4.10;99.90;;;;;;5034657;28;19924;-73